Time;durP1;ratioP1;P1;durP2;ratioP2;P2;SDS_P1;SDS_P2;PMS_P1;PMS_P2;Temp;Humidity;BMP_temperature;BMP_pressure;BME280_temperature;BME280_humidity;BME280_pressure;Samples;Min_cycle;Max_cycle;Signal;HPM_P1;HPM_P2
2021/09/11 00:02:21;;;;;;;2.88;1.20;;;24.50;99.90;;;;;;5091129;28;20111;-75
2021/09/11 00:04:47;;;;;;;3.70;1.08;;;24.50;99.90;;;;;;5091316;28;20016;-75
2021/09/11 00:07:13;;;;;;;3.83;1.35;;;24.50;99.90;;;;;;5091182;28;20111;-75
2021/09/11 00:09:39;;;;;;;7.13;1.65;;;24.50;99.90;;;;;;5073255;28;20028;-74
2021/09/11 00:12:06;;;;;;;2.47;1.30;;;24.50;99.90;;;;;;5073752;28;20024;-75
2021/09/11 00:14:31;;;;;;;3.00;1.48;;;24.40;99.90;;;;;;5075091;28;20035;-75
2021/09/11 00:16:57;;;;;;;2.17;1.20;;;24.40;99.90;;;;;;5074925;28;20036;-75
2021/09/11 00:19:23;;;;;;;2.58;1.30;;;24.40;99.90;;;;;;5074412;28;20013;-74
2021/09/11 00:21:48;;;;;;;1.42;1.17;;;24.40;99.90;;;;;;5074809;28;20154;-74
2021/09/11 00:24:14;;;;;;;2.25;1.38;;;24.40;99.90;;;;;;5074466;28;20028;-75
2021/09/11 00:26:39;;;;;;;3.45;1.30;;;24.40;99.90;;;;;;5082056;28;20070;-75
2021/09/11 00:29:06;;;;;;;4.80;1.35;;;24.40;99.90;;;;;;5095556;28;20032;-74
2021/09/11 00:31:32;;;;;;;2.13;1.25;;;24.40;99.90;;;;;;5094878;28;20039;-75
2021/09/11 00:33:57;;;;;;;2.10;1.30;;;24.40;99.90;;;;;;5094792;28;20495;-75
2021/09/11 00:36:23;;;;;;;2.15;1.48;;;24.40;99.90;;;;;;5094539;28;20079;-74
2021/09/11 00:38:49;;;;;;;3.33;1.20;;;24.40;99.90;;;;;;5094771;28;20502;-74
2021/09/11 00:41:15;;;;;;;2.15;1.23;;;24.40;99.90;;;;;;5094366;28;20024;-75
2021/09/11 00:43:48;;;;;;;2.10;1.10;;;24.40;99.90;;;;;;5094454;28;20106;-74
2021/09/11 00:46:15;;;;;;;1.90;1.30;;;24.40;99.90;;;;;;5094572;28;20093;-74
2021/09/11 00:48:41;;;;;;;3.13;1.38;;;24.40;99.90;;;;;;5094441;28;20032;-75
2021/09/11 00:51:07;;;;;;;3.22;1.50;;;24.40;99.90;;;;;;5094470;28;20487;-72
2021/09/11 00:53:33;;;;;;;1.42;1.15;;;24.40;99.90;;;;;;5094745;28;20302;-73
2021/09/11 00:55:59;;;;;;;2.25;1.13;;;24.40;99.90;;;;;;5094389;28;20088;-75
2021/09/11 00:58:26;;;;;;;2.08;0.95;;;24.40;99.90;;;;;;5094179;28;20035;-74
2021/09/11 01:00:51;;;;;;;2.83;1.45;;;24.40;99.90;;;;;;5094341;28;20098;-74
2021/09/11 01:03:17;;;;;;;2.42;1.45;;;24.30;99.90;;;;;;5075435;28;20474;-73
2021/09/11 01:05:44;;;;;;;2.17;1.15;;;24.30;99.90;;;;;;5077373;28;20030;-73
2021/09/11 01:08:10;;;;;;;3.05;1.30;;;24.30;99.90;;;;;;5093959;28;20020;-74
2021/09/11 01:10:40;;;;;;;2.60;1.33;;;24.30;99.90;;;;;;5094672;28;20085;-74
2021/09/11 01:13:11;;;;;;;1.92;1.15;;;24.30;99.90;;;;;;5094328;28;20077;-75
2021/09/11 01:15:39;;;;;;;2.30;1.50;;;24.30;99.90;;;;;;5094105;28;20475;-74
2021/09/11 01:18:09;;;;;;;3.38;1.30;;;24.30;99.90;;;;;;5092447;28;20031;-75
2021/09/11 01:20:36;;;;;;;2.17;1.52;;;24.30;99.90;;;;;;5094297;28;20020;-73
2021/09/11 01:23:02;;;;;;;2.28;1.20;;;24.30;99.90;;;;;;5093559;28;20085;-72
2021/09/11 01:25:28;;;;;;;2.08;1.20;;;24.30;99.90;;;;;;5093243;28;20052;-75
2021/09/11 01:27:54;;;;;;;3.22;1.60;;;24.30;99.90;;;;;;5093820;28;20047;-71
2021/09/11 01:30:21;;;;;;;2.30;1.23;;;24.20;99.90;;;;;;5093529;28;20050;-74
2021/09/11 01:32:49;;;;;;;3.60;1.38;;;24.30;99.90;;;;;;5093715;28;20024;-72
2021/09/11 01:35:15;;;;;;;2.55;1.17;;;24.20;99.90;;;;;;5093289;28;20036;-74
2021/09/11 01:37:41;;;;;;;1.80;0.90;;;24.30;99.90;;;;;;5093725;28;20020;-74
2021/09/11 01:40:08;;;;;;;2.38;1.15;;;24.20;99.90;;;;;;5093360;28;20081;-71
2021/09/11 01:42:34;;;;;;;3.05;1.00;;;24.20;99.90;;;;;;5093623;28;20035;-73
2021/09/11 01:45:04;;;;;;;2.33;1.10;;;24.20;99.90;;;;;;5092171;28;20028;-74
2021/09/11 01:47:30;;;;;;;2.03;1.10;;;24.20;99.90;;;;;;5071914;28;20024;-74
2021/09/11 01:49:56;;;;;;;3.35;1.20;;;24.20;99.90;;;;;;5073121;28;20490;-72
2021/09/11 01:52:22;;;;;;;2.85;1.30;;;24.20;99.90;;;;;;5072914;28;20642;-73
2021/09/11 01:54:48;;;;;;;2.30;1.02;;;24.20;99.90;;;;;;5073012;28;20036;-72
2021/09/11 01:57:13;;;;;;;1.65;1.20;;;24.20;99.90;;;;;;5072777;28;20052;-72
2021/09/11 01:59:40;;;;;;;1.85;0.93;;;24.20;99.90;;;;;;5073125;28;20495;-76
2021/09/11 02:02:07;;;;;;;4.25;1.10;;;24.20;99.90;;;;;;5073579;28;20090;-73
2021/09/11 02:04:34;;;;;;;3.83;1.30;;;24.20;99.90;;;;;;5073161;28;20029;-75
2021/09/11 02:07:01;;;;;;;1.92;1.38;;;24.20;99.90;;;;;;5072912;28;20070;-73
2021/09/11 02:09:28;;;;;;;2.08;1.10;;;24.20;99.90;;;;;;5072536;28;20119;-76
2021/09/11 02:11:53;;;;;;;3.00;1.40;;;24.20;99.90;;;;;;5072802;28;20020;-74
2021/09/11 02:14:19;;;;;;;2.88;1.13;;;24.20;99.90;;;;;;5072331;28;20349;-74
2021/09/11 02:16:45;;;;;;;1.90;1.02;;;24.20;99.90;;;;;;5072588;28;20438;-74
2021/09/11 02:19:10;;;;;;;2.80;0.90;;;24.20;99.90;;;;;;5072282;28;20103;-75
2021/09/11 02:21:36;;;;;;;2.00;1.10;;;24.10;99.90;;;;;;5073051;28;20075;-76
2021/09/11 02:24:02;;;;;;;3.33;1.50;;;24.10;99.90;;;;;;5072851;28;20021;-71
2021/09/11 02:26:27;;;;;;;3.45;1.30;;;24.10;99.90;;;;;;5072140;28;20384;-74
2021/09/11 02:28:53;;;;;;;2.92;1.50;;;24.10;99.90;;;;;;5072354;28;20075;-75
2021/09/11 02:31:20;;;;;;;2.70;1.23;;;24.10;99.90;;;;;;5089722;28;20065;-75
2021/09/11 02:33:47;;;;;;;1.90;1.25;;;24.10;99.90;;;;;;5074073;28;20028;-74
2021/09/11 02:36:13;;;;;;;3.35;1.17;;;24.10;99.90;;;;;;5092284;28;20062;-74
2021/09/11 02:38:39;;;;;;;3.08;1.20;;;24.10;99.90;;;;;;5087933;28;20405;-75
2021/09/11 02:41:05;;;;;;;3.90;1.30;;;24.10;99.90;;;;;;5072192;28;20162;-74
2021/09/11 02:43:31;;;;;;;2.60;1.40;;;24.10;99.90;;;;;;5071919;28;20103;-74
2021/09/11 02:45:57;;;;;;;2.17;1.30;;;24.10;99.90;;;;;;5072040;28;20040;-73
2021/09/11 02:48:23;;;;;;;2.05;1.10;;;24.10;99.90;;;;;;5071744;28;20031;-74
2021/09/11 02:50:48;;;;;;;2.67;1.30;;;24.10;99.90;;;;;;5071949;28;20040;-73
2021/09/11 02:53:14;;;;;;;2.78;1.50;;;24.10;99.90;;;;;;5071746;28;20020;-73
2021/09/11 02:55:40;;;;;;;2.95;1.20;;;24.10;99.90;;;;;;5071717;28;20036;-74
2021/09/11 02:58:06;;;;;;;3.35;1.20;;;24.10;99.90;;;;;;5072252;28;20027;-74
2021/09/11 03:00:31;;;;;;;2.80;1.27;;;24.10;99.90;;;;;;5071649;28;20036;-74
2021/09/11 03:02:57;;;;;;;3.53;1.27;;;24.10;99.90;;;;;;5071496;28;20405;-74
2021/09/11 03:05:22;;;;;;;2.20;1.15;;;24.00;99.90;;;;;;5071505;28;20036;-74
2021/09/11 03:07:48;;;;;;;1.85;1.17;;;24.00;99.90;;;;;;5053595;28;20031;-73
2021/09/11 03:10:14;;;;;;;5.72;1.58;;;24.10;99.90;;;;;;5071380;28;20107;-73
2021/09/11 03:12:39;;;;;;;1.70;1.20;;;24.00;99.90;;;;;;5071689;28;20082;-73
2021/09/11 03:15:06;;;;;;;2.83;1.30;;;24.00;99.90;;;;;;5071868;28;20436;-72
2021/09/11 03:17:32;;;;;;;3.38;1.40;;;24.00;99.90;;;;;;5071500;28;20021;-72
2021/09/11 03:19:57;;;;;;;3.78;1.02;;;24.00;99.90;;;;;;5082599;28;20185;-73
2021/09/11 03:22:23;;;;;;;2.20;1.20;;;24.00;99.90;;;;;;5091598;28;20024;-73
2021/09/11 03:24:48;;;;;;;2.03;1.17;;;24.00;99.90;;;;;;5090461;28;20040;-74
2021/09/11 03:27:14;;;;;;;2.38;1.10;;;24.00;99.90;;;;;;5091723;28;20491;-74
2021/09/11 03:29:40;;;;;;;2.30;1.15;;;24.00;99.90;;;;;;5090835;28;20020;-74
2021/09/11 03:32:06;;;;;;;2.80;1.25;;;24.00;99.90;;;;;;5091876;28;20130;-73
2021/09/11 03:34:32;;;;;;;1.55;1.00;;;24.00;99.90;;;;;;5091606;28;20020;-74
2021/09/11 03:36:58;;;;;;;2.47;1.30;;;24.00;99.90;;;;;;5091565;28;20387;-73
2021/09/11 03:39:23;;;;;;;1.85;1.20;;;23.90;99.90;;;;;;5091199;28;20039;-75
2021/09/11 03:41:49;;;;;;;2.35;1.10;;;23.90;99.90;;;;;;5091537;28;20028;-74
2021/09/11 03:44:15;;;;;;;2.00;1.20;;;23.90;99.90;;;;;;5091569;28;20076;-75
2021/09/11 03:46:40;;;;;;;3.05;1.40;;;23.90;99.90;;;;;;5093099;28;20071;-75
2021/09/11 03:49:06;;;;;;;1.55;1.10;;;23.90;99.90;;;;;;5095962;28;20027;-72
2021/09/11 03:51:34;;;;;;;2.35;1.38;;;23.90;99.90;;;;;;5095283;28;20043;-74
2021/09/11 03:54:00;;;;;;;3.80;1.30;;;23.90;99.90;;;;;;5077714;28;20024;-75
2021/09/11 03:56:26;;;;;;;2.28;1.33;;;23.90;99.90;;;;;;5095240;28;20047;-73
2021/09/11 03:58:52;;;;;;;2.08;1.10;;;23.90;99.90;;;;;;5095519;28;20024;-75
2021/09/11 04:01:17;;;;;;;1.95;1.23;;;23.90;99.90;;;;;;5095450;28;20031;-74
2021/09/11 04:03:43;;;;;;;1.60;0.98;;;23.90;99.90;;;;;;5095106;28;20107;-74
2021/09/11 04:06:10;;;;;;;1.13;1.00;;;23.90;99.90;;;;;;5095419;28;20020;-73
2021/09/11 04:08:35;;;;;;;1.80;1.15;;;23.90;99.90;;;;;;5095366;28;20024;-73
2021/09/11 04:11:01;;;;;;;3.15;1.20;;;23.90;99.90;;;;;;5095324;28;20031;-74
2021/09/11 04:13:27;;;;;;;2.05;1.23;;;23.90;99.90;;;;;;5091363;28;20032;-74
2021/09/11 04:15:52;;;;;;;3.13;1.00;;;23.90;99.90;;;;;;5075021;28;20050;-74
2021/09/11 04:18:18;;;;;;;3.33;1.30;;;23.90;99.90;;;;;;5074812;28;20024;-74
2021/09/11 04:20:44;;;;;;;3.67;1.52;;;23.90;99.90;;;;;;5074529;28;20400;-74
2021/09/11 04:23:10;;;;;;;2.30;1.40;;;23.80;99.90;;;;;;5074625;28;20019;-74
2021/09/11 04:25:36;;;;;;;1.92;1.23;;;23.90;99.90;;;;;;5074795;28;20033;-73
2021/09/11 04:28:01;;;;;;;2.97;1.10;;;23.80;99.90;;;;;;5074660;28;20028;-75
2021/09/11 04:30:27;;;;;;;4.25;1.20;;;23.80;99.90;;;;;;5074367;28;20032;-74
2021/09/11 04:32:53;;;;;;;2.63;1.30;;;23.80;99.90;;;;;;5074538;28;20016;-72
2021/09/11 04:35:19;;;;;;;3.55;1.15;;;23.80;99.90;;;;;;5074469;28;20032;-72
2021/09/11 04:37:44;;;;;;;3.13;0.93;;;23.80;99.90;;;;;;5074547;28;20461;-74
2021/09/11 04:40:10;;;;;;;1.45;1.30;;;23.80;99.90;;;;;;5089846;28;20031;-74
2021/09/11 04:42:36;;;;;;;2.65;1.40;;;23.80;99.90;;;;;;5094723;28;20028;-74
2021/09/11 04:45:02;;;;;;;2.95;1.20;;;23.80;99.90;;;;;;5094622;28;20039;-72
2021/09/11 04:47:27;;;;;;;3.95;1.17;;;23.80;99.90;;;;;;5077735;28;20028;-72
2021/09/11 04:49:53;;;;;;;3.42;1.23;;;23.80;99.90;;;;;;5074091;28;20031;-73
2021/09/11 04:52:19;;;;;;;1.70;0.93;;;23.80;99.90;;;;;;5074207;28;20115;-74
2021/09/11 04:54:44;;;;;;;1.88;1.08;;;23.80;99.90;;;;;;5073882;28;20028;-74
2021/09/11 04:57:10;;;;;;;4.18;1.20;;;23.80;99.90;;;;;;5073609;28;20027;-75
2021/09/11 04:59:36;;;;;;;1.98;1.13;;;23.80;99.90;;;;;;5074108;28;20025;-74
2021/09/11 05:02:01;;;;;;;2.42;1.20;;;23.80;99.90;;;;;;5074967;28;20074;-74
2021/09/11 05:04:27;;;;;;;1.88;1.00;;;23.80;99.90;;;;;;5055867;28;20024;-75
2021/09/11 05:06:53;;;;;;;2.70;1.13;;;23.80;99.90;;;;;;5073818;28;20103;-75
2021/09/11 05:09:18;;;;;;;2.80;1.38;;;23.80;99.90;;;;;;5073960;28;20032;-75
2021/09/11 05:11:44;;;;;;;2.88;1.20;;;23.70;99.90;;;;;;5073659;28;20500;-73
2021/09/11 05:14:09;;;;;;;3.67;1.48;;;23.70;99.90;;;;;;5087156;28;20082;-72
2021/09/11 05:16:35;;;;;;;4.20;1.40;;;23.70;99.90;;;;;;5094027;28;20067;-74
2021/09/11 05:19:01;;;;;;;2.30;1.27;;;23.80;99.90;;;;;;5093953;28;20020;-72
2021/09/11 05:21:26;;;;;;;4.22;1.13;;;23.70;99.90;;;;;;5093643;28;20428;-72
2021/09/11 05:23:52;;;;;;;4.75;1.73;;;23.70;99.90;;;;;;5093921;28;20016;-73
2021/09/11 05:26:17;;;;;;;9.85;1.27;;;23.70;99.90;;;;;;5093925;28;20491;-74
2021/09/11 05:28:43;;;;;;;2.67;1.33;;;23.70;99.90;;;;;;5093489;28;20024;-74
2021/09/11 05:31:09;;;;;;;6.97;1.45;;;23.70;99.90;;;;;;5094068;28;20028;-73
2021/09/11 05:33:34;;;;;;;1.80;1.20;;;23.70;99.90;;;;;;5093553;28;20028;-75
2021/09/11 05:36:01;;;;;;;1.60;1.23;;;23.70;99.90;;;;;;5093413;28;20031;-74
2021/09/11 05:38:26;;;;;;;2.40;1.38;;;23.70;99.90;;;;;;5093371;28;20077;-74
2021/09/11 05:40:52;;;;;;;2.72;1.10;;;23.70;99.90;;;;;;5093681;28;20021;-73
2021/09/11 05:43:18;;;;;;;3.22;1.38;;;23.70;99.90;;;;;;5093589;28;20024;-74
2021/09/11 05:45:43;;;;;;;2.88;1.15;;;23.70;99.90;;;;;;5093261;28;20028;-74
2021/09/11 05:48:10;;;;;;;2.28;1.23;;;23.70;99.90;;;;;;5093891;28;20402;-73
2021/09/11 05:50:35;;;;;;;2.65;1.25;;;23.70;99.90;;;;;;5093324;28;20036;-73
2021/09/11 05:53:01;;;;;;;1.95;1.08;;;23.70;99.90;;;;;;5093293;28;20528;-74
2021/09/11 05:55:27;;;;;;;3.83;1.40;;;23.70;99.90;;;;;;5093073;28;20043;-74
2021/09/11 05:57:53;;;;;;;2.05;1.25;;;23.70;99.90;;;;;;5093169;28;20372;-74
2021/09/11 06:00:18;;;;;;;4.68;1.50;;;23.70;99.90;;;;;;5091460;28;20036;-74
2021/09/11 06:02:44;;;;;;;2.60;1.38;;;23.60;99.90;;;;;;5092956;28;20095;-74
2021/09/11 06:05:10;;;;;;;2.08;0.98;;;23.60;99.90;;;;;;5093399;28;20486;-74
2021/09/11 06:07:37;;;;;;;1.60;1.30;;;23.70;99.90;;;;;;5091356;28;20025;-74
2021/09/11 06:10:04;;;;;;;2.22;1.30;;;23.60;99.90;;;;;;5090665;28;20035;-74
2021/09/11 06:12:29;;;;;;;2.30;1.17;;;23.60;99.90;;;;;;5092728;28;20047;-73
2021/09/11 06:14:55;;;;;;;2.08;1.17;;;23.60;99.90;;;;;;5092978;28;20472;-74
2021/09/11 06:17:21;;;;;;;2.20;1.27;;;23.60;99.90;;;;;;5092779;28;20016;-74
2021/09/11 06:19:46;;;;;;;2.28;1.23;;;23.60;99.90;;;;;;5092795;28;20028;-75
2021/09/11 06:22:13;;;;;;;2.90;1.40;;;23.60;99.90;;;;;;5092928;28;20016;-74
2021/09/11 06:24:39;;;;;;;2.88;1.60;;;23.60;99.90;;;;;;5075050;28;20031;-73
2021/09/11 06:27:07;;;;;;;4.57;1.35;;;23.60;99.90;;;;;;5092836;28;20035;-75
2021/09/11 06:29:33;;;;;;;2.30;1.10;;;23.60;99.90;;;;;;5092455;28;20028;-74
2021/09/11 06:31:58;;;;;;;3.78;1.25;;;23.60;99.90;;;;;;5092718;28;20111;-72
2021/09/11 06:34:24;;;;;;;4.50;1.02;;;23.60;99.90;;;;;;5092248;28;20379;-71
2021/09/11 06:36:50;;;;;;;2.38;1.20;;;23.60;99.90;;;;;;5092549;28;20032;-72
2021/09/11 06:39:17;;;;;;;2.72;1.38;;;23.60;99.90;;;;;;5092581;28;20028;-73
2021/09/11 06:41:43;;;;;;;2.70;1.10;;;23.60;99.90;;;;;;5095372;28;20487;-73
2021/09/11 06:44:09;;;;;;;3.63;1.45;;;23.60;99.90;;;;;;5092599;28;20020;-72
2021/09/11 06:46:35;;;;;;;1.35;1.00;;;23.50;99.90;;;;;;5092168;28;20027;-73
2021/09/11 06:49:01;;;;;;;1.27;0.90;;;23.50;99.90;;;;;;5093548;28;20030;-72
2021/09/11 06:51:27;;;;;;;2.22;1.10;;;23.50;99.90;;;;;;5087455;28;20032;-72
2021/09/11 06:53:52;;;;;;;1.55;1.08;;;23.50;99.90;;;;;;5071967;28;20024;-72
2021/09/11 06:56:19;;;;;;;2.92;1.20;;;23.50;99.90;;;;;;5071808;28;20048;-72
2021/09/11 06:58:45;;;;;;;4.13;1.30;;;23.50;99.90;;;;;;5078502;28;20020;-73
2021/09/11 07:01:11;;;;;;;2.60;0.98;;;23.50;99.90;;;;;;5075908;28;20079;-72
2021/09/11 07:03:36;;;;;;;4.90;1.40;;;23.50;99.90;;;;;;5071433;28;20016;-72
2021/09/11 07:06:06;;;;;;;2.13;1.10;;;23.50;99.90;;;;;;5071895;28;20107;-72
2021/09/11 07:08:32;;;;;;;1.75;0.90;;;23.50;99.90;;;;;;5071553;28;20374;-73
2021/09/11 07:10:59;;;;;;;2.25;1.13;;;23.50;99.90;;;;;;5071690;28;20016;-72
2021/09/11 07:13:24;;;;;;;4.88;1.42;;;23.50;99.90;;;;;;5071532;28;20031;-72
2021/09/11 07:15:50;;;;;;;3.58;1.15;;;23.60;99.90;;;;;;5071366;28;20024;-72
2021/09/11 07:18:16;;;;;;;1.98;1.00;;;23.50;99.90;;;;;;5071670;28;20115;-72
2021/09/11 07:20:41;;;;;;;3.10;1.33;;;23.50;99.90;;;;;;5071562;28;20036;-72
2021/09/11 07:23:07;;;;;;;2.28;1.05;;;23.50;99.90;;;;;;5108273;28;20115;-72
2021/09/11 07:25:33;;;;;;;2.25;1.10;;;23.50;99.90;;;;;;5111820;28;20031;-72
2021/09/11 07:27:59;;;;;;;2.28;1.10;;;23.50;99.90;;;;;;5112095;28;20031;-72
2021/09/11 07:30:24;;;;;;;4.22;1.60;;;23.50;99.90;;;;;;5111574;28;20080;-63
2021/09/11 07:32:50;;;;;;;5.55;1.90;;;23.50;99.90;;;;;;5111999;28;20019;-65
2021/09/11 07:35:16;;;;;;;4.03;2.15;;;23.40;99.90;;;;;;5111797;28;20036;-67
2021/09/11 07:37:41;;;;;;;4.03;2.00;;;23.30;99.90;;;;;;5111925;28;20493;-67
2021/09/11 07:40:08;;;;;;;4.80;1.90;;;23.30;99.90;;;;;;5111887;28;20027;-66
2021/09/11 07:42:34;;;;;;;4.40;2.17;;;23.30;99.90;;;;;;5111379;28;20350;-67
2021/09/11 07:44:59;;;;;;;4.63;2.38;;;23.30;99.90;;;;;;5111956;28;20027;-67
2021/09/11 07:47:25;;;;;;;5.95;2.25;;;23.20;99.90;;;;;;5111585;28;20024;-68
2021/09/11 07:49:50;;;;;;;5.18;2.28;;;23.20;99.90;;;;;;5102382;28;20039;-68
2021/09/11 07:52:16;;;;;;;5.78;2.72;;;23.20;99.90;;;;;;5091602;28;20020;-67
2021/09/11 07:54:42;;;;;;;8.75;2.97;;;23.10;99.90;;;;;;5091421;28;20050;-67
2021/09/11 07:57:08;;;;;;;4.38;2.33;;;23.10;99.90;;;;;;5091835;28;20032;-68
2021/09/11 07:59:33;;;;;;;4.93;2.80;;;23.00;99.90;;;;;;5090963;28;20028;-68
2021/09/11 08:01:59;;;;;;;6.38;2.85;;;23.00;99.90;;;;;;5091048;28;20078;-68
2021/09/11 08:04:24;;;;;;;5.57;2.60;;;22.90;99.90;;;;;;5090313;28;20020;-68
2021/09/11 08:06:50;;;;;;;5.40;2.50;;;22.90;99.90;;;;;;5089034;28;20028;-68
2021/09/11 08:09:16;;;;;;;4.70;2.53;;;22.80;99.90;;;;;;5093047;28;20042;-67
2021/09/11 08:11:41;;;;;;;6.50;2.60;;;22.80;99.90;;;;;;5111682;28;20489;-69
2021/09/11 08:14:07;;;;;;;6.00;2.60;;;22.70;99.90;;;;;;5085200;28;20028;-67
2021/09/11 08:16:33;;;;;;;3.67;2.72;;;22.70;99.90;;;;;;5070712;28;20044;-67
2021/09/11 08:18:59;;;;;;;3.95;2.45;;;22.60;99.90;;;;;;5071127;28;20096;-67
2021/09/11 08:21:24;;;;;;;6.13;2.47;;;22.60;99.90;;;;;;5072438;28;20486;-67
2021/09/11 08:23:50;;;;;;;5.38;3.00;;;22.50;99.90;;;;;;5089896;28;20022;-67
2021/09/11 08:26:16;;;;;;;6.60;2.95;;;22.50;99.90;;;;;;5089790;28;20031;-67
2021/09/11 08:28:42;;;;;;;4.28;2.97;;;22.40;99.90;;;;;;5090630;28;20383;-67
2021/09/11 08:31:07;;;;;;;5.40;2.63;;;22.40;99.90;;;;;;5091083;28;20026;-68
2021/09/11 08:33:33;;;;;;;4.28;2.45;;;22.30;99.90;;;;;;5091920;28;20438;-67
2021/09/11 08:35:59;;;;;;;5.72;2.75;;;22.30;99.90;;;;;;5093475;28;20024;-68
2021/09/11 08:38:25;;;;;;;5.10;2.55;;;22.30;99.90;;;;;;5093482;28;20024;-67
2021/09/11 08:40:51;;;;;;;4.85;2.78;;;22.20;99.90;;;;;;5093756;28;20084;-66
2021/09/11 08:43:18;;;;;;;6.90;2.88;;;22.20;99.90;;;;;;5093462;28;20023;-67
2021/09/11 08:45:44;;;;;;;5.75;2.70;;;22.10;99.90;;;;;;5093692;28;20376;-67
2021/09/11 08:48:10;;;;;;;6.47;3.25;;;22.00;99.90;;;;;;5093572;28;20055;-68
2021/09/11 08:50:36;;;;;;;8.57;3.40;;;22.00;99.90;;;;;;5092218;28;20063;-66
2021/09/11 08:53:03;;;;;;;6.78;3.05;;;21.90;99.90;;;;;;5091546;28;20024;-69
2021/09/11 08:55:29;;;;;;;6.38;3.55;;;21.90;99.90;;;;;;5092365;28;20046;-67
2021/09/11 08:58:01;;;;;;;8.80;3.38;;;21.90;99.90;;;;;;5093750;28;20380;-68
2021/09/11 09:00:39;;;;;;;7.25;3.40;;;21.80;99.90;;;;;;5092828;28;20472;-67
2021/09/11 09:03:26;;;;;;;5.18;3.03;;;21.80;99.90;;;;;;5092290;28;20020;-67
2021/09/11 09:05:53;;;;;;;5.53;3.00;;;21.80;99.90;;;;;;5090654;28;20024;-67
2021/09/11 09:08:28;;;;;;;6.88;3.00;;;21.70;99.90;;;;;;5092887;28;20521;-67
2021/09/11 09:10:55;;;;;;;6.90;2.85;;;21.70;99.90;;;;;;5092302;28;20031;-67
2021/09/11 09:13:21;;;;;;;6.35;2.70;;;21.70;99.90;;;;;;5090695;28;20070;-67
2021/09/11 09:15:48;;;;;;;6.30;2.35;;;21.70;99.90;;;;;;5093018;28;20044;-67
2021/09/11 09:18:15;;;;;;;6.03;2.45;;;21.60;99.90;;;;;;5092742;28;20077;-66
2021/09/11 09:20:42;;;;;;;6.50;2.55;;;21.60;99.90;;;;;;5089964;28;20082;-67
2021/09/11 09:23:17;;;;;;;6.43;2.53;;;21.60;99.90;;;;;;5093548;28;20016;-67
2021/09/11 09:25:44;;;;;;;6.30;2.45;;;21.50;99.90;;;;;;5095006;28;20035;-67
2021/09/11 09:28:12;;;;;;;5.68;2.28;;;21.50;99.90;;;;;;5095172;28;20099;-67
2021/09/11 09:30:49;;;;;;;3.80;1.90;;;21.50;99.90;;;;;;5101854;28;20029;-67
2021/09/11 09:33:19;;;;;;;6.28;1.98;;;21.50;99.90;;;;;;5107189;28;20652;-67
2021/09/11 09:35:45;;;;;;;4.88;1.90;;;21.50;99.90;;;;;;5114100;28;20043;-67
2021/09/11 09:38:11;;;;;;;7.40;2.10;;;21.50;99.90;;;;;;5114365;28;20378;-67
2021/09/11 09:40:45;;;;;;;3.92;1.50;;;21.40;99.90;;;;;;5113705;28;20020;-67
2021/09/11 09:43:28;;;;;;;2.63;1.50;;;21.50;99.90;;;;;;5108246;28;20111;-70
2021/09/11 09:46:36;;;;;;;4.53;1.70;;;21.40;99.90;;;;;;5093489;28;20017;-70
2021/09/11 09:49:02;;;;;;;5.43;1.80;;;21.40;99.90;;;;;;5054544;28;20063;-67
2021/09/11 09:51:27;;;;;;;5.25;1.50;;;21.40;99.90;;;;;;5097560;28;20051;-66
2021/09/11 09:53:53;;;;;;;5.95;1.60;;;21.40;99.90;;;;;;5093217;28;20070;-67
2021/09/11 09:56:19;;;;;;;5.70;1.90;;;21.40;99.90;;;;;;5093382;28;20036;-67
2021/09/11 09:58:45;;;;;;;3.20;1.38;;;21.30;99.90;;;;;;5093309;28;20020;-67
2021/09/11 10:01:11;;;;;;;4.35;1.60;;;21.30;99.90;;;;;;5096275;28;20059;-67
2021/09/11 10:03:36;;;;;;;4.22;1.50;;;21.30;99.90;;;;;;5092822;28;20055;-70
2021/09/11 10:06:10;;;;;;;3.22;1.55;;;21.30;99.90;;;;;;5088802;28;20025;-67
2021/09/11 10:08:41;;;;;;;;;;;21.30;99.90;;;;;;5072950;28;20537;-66
2021/09/11 10:11:13;;;;;;;3.40;1.40;;;21.30;99.90;;;;;;5072890;28;19908;-69
2021/09/11 10:13:59;;;;;;;5.03;1.60;;;21.30;99.90;;;;;;5072646;28;20021;-69
2021/09/11 10:16:36;;;;;;;5.70;1.73;;;21.30;99.90;;;;;;5072486;28;20039;-70
2021/09/11 10:19:23;;;;;;;3.88;1.65;;;21.30;99.90;;;;;;5083024;28;20480;-70
2021/09/11 10:21:50;;;;;;;3.45;1.45;;;21.30;99.90;;;;;;5092191;28;20023;-67
2021/09/11 10:24:26;;;;;;;4.82;1.67;;;21.30;99.90;;;;;;5092472;28;20376;-68
2021/09/11 10:27:01;;;;;;;3.28;1.30;;;21.20;99.90;;;;;;5080459;28;20033;-71
2021/09/11 10:29:37;;;;;;;6.10;1.90;;;21.30;99.90;;;;;;5072234;28;20388;-71
2021/09/11 10:32:14;;;;;;;2.83;1.40;;;21.30;99.90;;;;;;5077494;28;20112;-67
2021/09/11 10:34:47;;;;;;;5.60;1.48;;;21.20;99.90;;;;;;5103377;28;20548;-68
2021/09/11 10:37:33;;;;;;;4.47;1.52;;;21.20;99.90;;;;;;5111718;28;20115;-67
2021/09/11 10:40:19;;;;;;;3.90;1.50;;;21.20;99.90;;;;;;5074615;28;20032;-67
2021/09/11 10:45:38;;;;;;;;;;;21.20;99.90;;;;;;5091404;28;20034;-68
2021/09/11 10:48:33;;;;;;;3.25;1.38;;;21.20;99.90;;;;;;5091547;28;19934;-67
2021/09/11 10:51:24;;;;;;;3.63;1.40;;;21.20;99.90;;;;;;5087812;28;20495;-68
2021/09/11 10:54:13;;;;;;;1.85;1.27;;;21.20;99.90;;;;;;5088706;28;20400;-68
2021/09/11 10:56:47;;;;;;;4.32;1.20;;;21.20;99.90;;;;;;5091502;28;20544;-68
2021/09/11 10:59:16;;;;;;;4.32;1.27;;;21.20;99.90;;;;;;5092381;28;20024;-68
2021/09/11 11:02:08;;;;;;;4.13;1.35;;;21.20;99.90;;;;;;5092443;28;20420;-68
2021/09/11 11:04:49;;;;;;;3.90;1.27;;;21.20;99.90;;;;;;5091710;28;20505;-68
2021/09/11 11:07:41;;;;;;;4.72;1.30;;;21.20;99.90;;;;;;5092461;28;20069;-70
2021/09/11 11:10:10;;;;;;;3.85;1.27;;;21.20;99.90;;;;;;5092065;28;20036;-71
2021/09/11 11:12:40;;;;;;;4.65;1.73;;;21.20;99.90;;;;;;5091695;28;20028;-71
2021/09/11 11:15:09;;;;;;;2.58;1.15;;;21.30;99.90;;;;;;5091991;28;20059;-70
2021/09/11 11:17:44;;;;;;;4.05;1.40;;;21.20;99.90;;;;;;5091631;28;20028;-70
2021/09/11 11:20:10;;;;;;;6.80;1.40;;;21.30;99.90;;;;;;5091815;28;20483;-69
2021/09/11 11:22:39;;;;;;;4.68;1.65;;;21.30;99.90;;;;;;5091458;28;20101;-69
2021/09/11 11:25:14;;;;;;;4.25;1.38;;;21.20;99.90;;;;;;5091826;28;20031;-69
2021/09/11 11:27:41;;;;;;;2.95;1.40;;;21.30;99.90;;;;;;5091701;28;20049;-68
2021/09/11 11:30:11;;;;;;;4.50;1.15;;;21.30;99.90;;;;;;5091575;28;20027;-68
2021/09/11 11:32:37;;;;;;;4.68;1.60;;;21.30;99.90;;;;;;5091390;28;20032;-68
2021/09/11 11:35:05;;;;;;;4.35;1.58;;;21.20;99.90;;;;;;5091592;28;20028;-68
2021/09/11 11:37:33;;;;;;;4.35;1.35;;;21.20;99.90;;;;;;5091282;28;20387;-69
2021/09/11 11:40:02;;;;;;;4.78;1.60;;;21.30;99.90;;;;;;5091703;28;20016;-71
2021/09/11 11:42:31;;;;;;;3.92;1.35;;;21.30;99.90;;;;;;5091340;28;20154;-68
2021/09/11 11:44:57;;;;;;;3.28;1.38;;;21.30;99.90;;;;;;5091679;28;20115;-67
2021/09/11 11:47:41;;;;;;;3.08;1.58;;;21.30;99.90;;;;;;5091149;28;20048;-67
2021/09/11 11:50:09;;;;;;;;;;;21.30;99.90;;;;;;5091795;28;20039;-70
2021/09/11 11:52:35;;;;;;;6.03;1.67;;;21.30;99.90;;;;;;5091137;28;19996;-72
2021/09/11 11:55:08;;;;;;;6.00;1.38;;;21.30;99.90;;;;;;5091337;28;20095;-71
2021/09/11 11:57:33;;;;;;;3.30;1.38;;;21.30;99.90;;;;;;5091259;28;20032;-71
2021/09/11 12:00:05;;;;;;;5.00;1.40;;;21.30;99.90;;;;;;5091238;28;20021;-72
2021/09/11 12:02:37;;;;;;;3.90;1.20;;;21.30;99.90;;;;;;5090844;28;20027;-72
2021/09/11 12:05:26;;;;;;;3.78;1.40;;;21.30;99.90;;;;;;5091353;28;20020;-72
2021/09/11 12:07:58;;;;;;;3.05;1.50;;;21.30;99.90;;;;;;5093505;28;20044;-72
2021/09/11 12:10:26;;;;;;;7.47;2.00;;;21.30;99.90;;;;;;5094799;28;20032;-71
2021/09/11 12:12:57;;;;;;;4.78;1.40;;;21.30;99.90;;;;;;5094991;28;20016;-72
2021/09/11 12:15:27;;;;;;;4.35;1.50;;;21.40;99.90;;;;;;5094458;28;20054;-72
2021/09/11 12:17:57;;;;;;;5.07;1.88;;;21.40;99.90;;;;;;5095109;28;20042;-72
2021/09/11 12:20:24;;;;;;;3.78;1.70;;;21.40;99.90;;;;;;5094797;28;20032;-72
2021/09/11 12:23:11;;;;;;;5.40;1.75;;;21.40;99.90;;;;;;5095066;28;20091;-71
2021/09/11 12:25:53;;;;;;;5.18;1.90;;;21.40;99.90;;;;;;5094730;28;20093;-70
2021/09/11 12:28:44;;;;;;;9.13;2.00;;;21.40;99.90;;;;;;5094888;28;20024;-71
2021/09/11 12:31:18;;;;;;;7.00;1.60;;;21.40;99.90;;;;;;5095098;28;20020;-70
2021/09/11 12:34:01;;;;;;;6.20;1.50;;;21.40;99.90;;;;;;5094911;28;20357;-71
2021/09/11 12:36:26;;;;;;;2.78;1.33;;;21.40;99.90;;;;;;5094652;28;20097;-71
2021/09/11 12:38:53;;;;;;;4.72;1.77;;;21.40;99.90;;;;;;5094696;28;20020;-71
2021/09/11 12:41:20;;;;;;;3.67;1.38;;;21.40;99.90;;;;;;5094770;28;20042;-70
2021/09/11 12:43:45;;;;;;;4.40;1.73;;;21.40;99.90;;;;;;5095138;28;20395;-70
2021/09/11 12:46:13;;;;;;;4.68;1.33;;;21.40;99.90;;;;;;5094619;28;20025;-71
2021/09/11 12:48:41;;;;;;;3.28;1.52;;;21.40;99.90;;;;;;5094351;28;20026;-71
2021/09/11 12:51:07;;;;;;;3.42;1.67;;;21.40;99.90;;;;;;5094390;28;20395;-72
2021/09/11 12:53:34;;;;;;;3.35;1.50;;;21.40;99.90;;;;;;5094116;28;20077;-71
2021/09/11 12:56:00;;;;;;;4.07;1.42;;;21.40;99.90;;;;;;5076523;28;20043;-72